createdAt,value
2023-11-23T00:03:37.333Z,8.97
2023-11-23T00:07:41.640Z,11.07
2023-11-23T00:11:42.957Z,9.70
2023-11-23T00:15:44.358Z,8.80
2023-11-23T00:19:47.933Z,9.13
2023-11-23T00:23:49.662Z,9.67
2023-11-23T00:27:51.097Z,9.47
2023-11-23T00:31:52.829Z,9.13
2023-11-23T00:35:55.320Z,9.20
2023-11-23T00:39:56.736Z,9.70
2023-11-23T00:43:58.192Z,10.47
2023-11-23T00:47:59.697Z,8.40
2023-11-23T00:52:02.240Z,8.57
2023-11-23T00:56:04.320Z,7.57
2023-11-23T01:00:08.306Z,7.80
2023-11-23T01:04:09.718Z,9.50
2023-11-23T01:08:12.295Z,8.50
2023-11-23T01:12:13.716Z,9.53
2023-11-23T01:16:15.189Z,22.13
2023-11-23T01:20:16.626Z,11.00
2023-11-23T01:24:18.410Z,9.30
2023-11-23T01:28:19.963Z,8.50
2023-11-23T01:32:21.339Z,12.00
2023-11-23T01:36:22.683Z,8.17
2023-11-23T01:40:24.010Z,10.17
2023-11-23T01:44:25.443Z,9.27
2023-11-23T01:48:27.972Z,8.20
2023-11-23T01:52:30.707Z,8.87
2023-11-23T01:56:32.121Z,8.67
2023-11-23T02:00:34.097Z,8.50
2023-11-23T02:04:35.588Z,9.07
2023-11-23T02:08:37.272Z,9.40
2023-11-23T02:12:39.426Z,8.17
2023-11-23T02:16:40.856Z,9.00
2023-11-23T02:20:48.150Z,10.17
2023-11-23T02:24:49.626Z,8.73
2023-11-23T02:28:50.954Z,10.60
2023-11-23T02:32:52.444Z,10.07
2023-11-23T02:36:53.997Z,11.63
2023-11-23T02:40:55.387Z,11.73
2023-11-23T02:44:56.773Z,11.40
2023-11-23T02:48:58.250Z,11.50
2023-11-23T02:52:59.836Z,11.47
2023-11-23T02:57:01.203Z,12.20
2023-11-23T03:01:02.539Z,12.93
2023-11-23T03:05:05.025Z,11.33
2023-11-23T03:09:06.472Z,12.13
2023-11-23T03:13:08.525Z,11.80
2023-11-23T03:17:10.062Z,11.13
2023-11-23T03:21:12.017Z,12.27
2023-11-23T03:25:13.572Z,11.97
2023-11-23T03:29:14.963Z,12.40
2023-11-23T03:33:16.419Z,11.80
2023-11-23T03:37:20.121Z,11.40
2023-11-23T03:41:21.618Z,11.57
2023-11-23T03:45:23.886Z,11.10
2023-11-23T03:49:25.426Z,10.77
2023-11-23T03:53:26.859Z,10.53
2023-11-23T03:57:28.314Z,12.17
2023-11-23T04:01:29.767Z,11.50
2023-11-23T04:05:31.137Z,11.77
2023-11-23T04:09:32.438Z,12.00
2023-11-23T04:13:33.835Z,11.50
2023-11-23T04:17:35.214Z,12.90
2023-11-23T04:21:36.548Z,12.67
2023-11-23T04:25:38.407Z,13.13
2023-11-23T04:29:39.724Z,12.50
2023-11-23T04:33:41.168Z,12.63
2023-11-23T04:37:42.628Z,13.10
2023-11-23T04:41:43.981Z,13.80
2023-11-23T04:45:45.349Z,13.03
2023-11-23T04:49:46.685Z,12.43
2023-11-23T04:53:48.071Z,13.00
2023-11-23T04:57:49.849Z,12.87
2023-11-23T05:01:51.194Z,13.57
2023-11-23T05:05:52.636Z,13.40
2023-11-23T05:09:54.118Z,13.33
2023-11-23T05:13:57.618Z,13.13
2023-11-23T05:17:59.226Z,12.90
2023-11-23T05:22:00.567Z,13.97
2023-11-23T05:26:04.518Z,14.13
2023-11-23T05:30:06.719Z,13.73
2023-11-23T05:34:08.077Z,14.00
2023-11-23T05:38:09.379Z,14.13
2023-11-23T05:42:10.901Z,13.43
2023-11-23T05:46:14.518Z,14.30
2023-11-23T05:50:16.367Z,14.30
2023-11-23T05:54:17.806Z,15.23
2023-11-23T05:58:19.134Z,14.83
2023-11-23T06:02:20.538Z,14.33
2023-11-23T06:06:24.524Z,15.57
2023-11-23T06:10:28.138Z,15.10
2023-11-23T06:14:29.702Z,14.90
2023-11-23T06:18:31.236Z,16.03
2023-11-23T06:22:32.862Z,14.70
2023-11-23T06:26:34.168Z,16.00
2023-11-23T06:30:36.157Z,15.47
2023-11-23T06:34:40.366Z,15.60
2023-11-23T06:38:42.686Z,15.30
2023-11-23T06:42:44.051Z,15.57
2023-11-23T06:47:05.208Z,17.13
2023-11-23T06:51:08.048Z,16.07
2023-11-23T06:55:10.611Z,15.70
2023-11-23T06:59:12.127Z,16.17
2023-11-23T07:03:13.702Z,15.50
2023-11-23T07:07:15.150Z,16.00
2023-11-23T07:11:20.275Z,15.83
2023-11-23T07:15:25.977Z,15.53
2023-11-23T07:19:27.697Z,16.37
2023-11-23T07:23:29.088Z,14.90
2023-11-23T07:27:30.741Z,15.57
2023-11-23T07:31:32.211Z,16.70
2023-11-23T07:35:33.758Z,14.67
2023-11-23T07:39:35.209Z,15.83
2023-11-23T07:43:36.805Z,16.37
2023-11-23T07:47:42.610Z,14.67
2023-11-23T07:51:44.027Z,14.63
2023-11-23T07:55:45.353Z,14.80
2023-11-23T07:59:46.913Z,14.87
2023-11-23T08:03:51.403Z,18.50
2023-11-23T08:07:52.830Z,14.97
2023-11-23T08:11:58.321Z,14.57
2023-11-23T08:16:03.051Z,15.17
2023-11-23T08:20:13.404Z,16.50
2023-11-23T08:24:16.256Z,14.03
2023-11-23T08:28:17.644Z,14.60
2023-11-23T08:32:20.047Z,14.47
2023-11-23T08:36:21.441Z,15.30
2023-11-23T08:40:23.025Z,14.87
2023-11-23T08:44:24.316Z,14.03
2023-11-23T08:48:25.902Z,13.87
2023-11-23T08:52:28.957Z,14.90
2023-11-23T08:56:30.440Z,14.07
2023-11-23T09:00:31.786Z,14.03
2023-11-23T09:04:44.460Z,14.07
2023-11-23T09:08:47.021Z,13.37
2023-11-23T09:12:48.348Z,12.70
2023-11-23T09:16:49.683Z,13.50
2023-11-23T09:20:52.156Z,13.30
2023-11-23T09:24:53.614Z,12.90
2023-11-23T09:28:54.960Z,12.80
2023-11-23T09:32:56.877Z,12.53
2023-11-23T09:36:58.357Z,13.93
2023-11-23T09:41:00.086Z,13.43
2023-11-23T09:45:02.592Z,12.70
2023-11-23T09:49:05.239Z,12.67
2023-11-23T09:53:10.421Z,12.53
2023-11-23T09:57:11.885Z,12.90
2023-11-23T10:01:14.009Z,11.83
2023-11-23T10:05:17.286Z,11.87
2023-11-23T10:09:18.756Z,11.97
2023-11-23T10:13:22.842Z,11.97
2023-11-23T10:17:24.207Z,11.90
2023-11-23T10:21:25.698Z,11.20
2023-11-23T10:25:36.609Z,11.70
2023-11-23T10:29:38.309Z,10.63
2023-11-23T10:33:42.646Z,10.57
2023-11-23T10:37:44.068Z,10.63
2023-11-23T10:41:48.517Z,10.03
2023-11-23T10:45:50.524Z,9.90
2023-11-23T10:49:55.877Z,10.10
2023-11-23T10:53:57.348Z,9.57
2023-11-23T10:58:11.266Z,9.00
2023-11-23T11:02:13.707Z,10.03
2023-11-23T11:06:18.619Z,8.40
2023-11-23T11:10:20.641Z,8.03
2023-11-23T11:14:35.755Z,9.00
2023-11-23T11:18:37.483Z,8.57
2023-11-23T11:22:38.939Z,8.03
2023-11-23T11:26:43.796Z,8.40
2023-11-23T11:30:47.371Z,8.67
2023-11-23T11:34:48.922Z,8.50
2023-11-23T11:39:00.159Z,9.13
2023-11-23T11:43:03.637Z,8.37
2023-11-23T11:47:08.038Z,7.63
2023-11-23T11:51:10.012Z,7.47
2023-11-23T11:55:11.805Z,7.10
2023-11-23T11:59:13.234Z,7.37
2023-11-23T12:03:15.298Z,7.87
2023-11-23T12:07:16.891Z,7.87
2023-11-23T12:11:32.074Z,8.00
2023-11-23T12:15:34.968Z,8.90
2023-11-23T12:19:36.584Z,11.23
2023-11-23T12:23:42.683Z,10.43
2023-11-23T12:27:45.130Z,8.73
2023-11-23T12:31:46.462Z,7.60
2023-11-23T12:35:49.045Z,7.40
2023-11-23T12:39:55.634Z,8.30
2023-11-23T12:43:56.999Z,7.43
2023-11-23T12:47:59.262Z,8.20
2023-11-23T12:52:02.333Z,8.13
2023-11-23T12:56:04.031Z,7.43
2023-11-23T13:00:14.967Z,6.73
2023-11-23T13:04:20.187Z,7.97
2023-11-23T13:08:21.877Z,7.43
2023-11-23T13:12:23.386Z,8.00
2023-11-23T13:16:25.251Z,6.07
2023-11-23T13:20:29.865Z,5.57
2023-11-23T13:24:31.776Z,6.27
2023-11-23T13:28:36.668Z,5.73
2023-11-23T13:32:39.871Z,5.77
2023-11-23T13:36:42.268Z,6.47
2023-11-23T13:40:44.271Z,5.87
2023-11-23T13:44:48.290Z,5.63
2023-11-23T13:48:51.172Z,5.93
2023-11-23T13:52:52.507Z,6.63
2023-11-23T13:56:54.175Z,4.90
2023-11-23T14:00:55.507Z,5.30
2023-11-23T14:04:56.821Z,4.50
2023-11-23T14:08:58.275Z,4.00
2023-11-23T14:13:01.083Z,3.60
2023-11-23T14:17:02.446Z,4.53
2023-11-23T14:21:04.041Z,4.87
2023-11-23T14:25:06.052Z,3.70
2023-11-23T14:29:08.942Z,4.07
2023-11-23T14:33:14.306Z,3.80
2023-11-23T14:37:15.794Z,4.23
2023-11-23T14:41:23.248Z,3.83
2023-11-23T14:45:28.381Z,3.37
2023-11-23T14:49:31.801Z,4.07
2023-11-23T14:53:33.189Z,3.47
2023-11-23T14:57:34.727Z,3.40
2023-11-23T15:01:37.027Z,3.57
2023-11-23T15:05:38.409Z,3.57
2023-11-23T15:09:42.141Z,3.63
2023-11-23T15:13:43.498Z,3.00
2023-11-23T15:17:44.810Z,3.13
2023-11-23T15:21:46.622Z,2.87
2023-11-23T15:25:48.842Z,3.23
2023-11-23T15:29:50.968Z,3.03
2023-11-23T15:33:52.482Z,3.23
2023-11-23T15:37:54.013Z,3.10
2023-11-23T15:41:55.525Z,3.43
2023-11-23T15:45:56.832Z,3.30
2023-11-23T15:49:58.206Z,3.53
2023-11-23T15:53:59.717Z,3.00
2023-11-23T15:58:01.233Z,3.27
2023-11-23T16:02:04.889Z,3.97
2023-11-23T16:06:07.644Z,3.57
2023-11-23T16:10:10.295Z,2.93
2023-11-23T16:14:12.136Z,3.20
2023-11-23T16:18:14.764Z,2.70
2023-11-23T16:22:16.163Z,2.90
2023-11-23T16:26:18.711Z,3.10
2023-11-23T16:30:20.097Z,3.27
2023-11-23T16:34:21.863Z,3.13
2023-11-23T16:38:23.269Z,2.93
2023-11-23T16:42:24.640Z,3.47
2023-11-23T16:46:26.280Z,3.10
2023-11-23T16:50:30.217Z,2.87
2023-11-23T16:54:32.668Z,4.00
2023-11-23T16:58:34.037Z,3.20
2023-11-23T17:02:35.572Z,3.13
2023-11-23T17:06:38.029Z,3.70
2023-11-23T17:10:41.049Z,3.00
2023-11-23T17:14:42.970Z,3.07
2023-11-23T17:18:44.407Z,3.10
2023-11-23T17:22:46.233Z,3.73
2023-11-23T17:26:47.580Z,3.80
2023-11-23T17:30:49.310Z,3.00
2023-11-23T17:34:50.861Z,3.47
2023-11-23T17:38:52.842Z,3.60
2023-11-23T17:42:54.236Z,3.67
2023-11-23T17:46:55.715Z,3.83
2023-11-23T17:50:57.085Z,3.90
2023-11-23T17:54:58.993Z,3.90
2023-11-23T17:59:13.588Z,3.80
2023-11-23T18:03:22.137Z,4.33
2023-11-23T18:07:23.528Z,4.37
2023-11-23T18:11:26.154Z,4.10
2023-11-23T18:15:27.528Z,4.40
2023-11-23T18:19:28.924Z,4.00
2023-11-23T18:23:30.329Z,3.97
2023-11-23T18:27:31.656Z,4.53
2023-11-23T18:31:34.133Z,4.40
2023-11-23T18:35:36.592Z,4.17
2023-11-23T18:39:38.036Z,4.97
2023-11-23T18:43:39.688Z,4.70
2023-11-23T18:47:42.440Z,5.13
2023-11-23T18:51:43.924Z,6.20
2023-11-23T18:55:46.197Z,6.40
2023-11-23T18:59:47.654Z,6.70
2023-11-23T19:03:49.371Z,7.43
2023-11-23T19:07:50.800Z,8.83
2023-11-23T19:11:53.613Z,7.20
2023-11-23T19:15:56.080Z,8.73
2023-11-23T19:19:57.753Z,8.20
2023-11-23T19:23:59.410Z,9.83
2023-11-23T19:28:02.280Z,9.13
2023-11-23T19:32:11.513Z,9.67
2023-11-23T19:36:15.053Z,8.60
2023-11-23T19:40:17.467Z,8.37
2023-11-23T19:44:19.154Z,8.87
2023-11-23T19:48:21.079Z,9.50
2023-11-23T19:52:28.371Z,9.03
2023-11-23T19:56:29.684Z,9.73
2023-11-23T20:00:31.430Z,10.00
2023-11-23T20:04:34.263Z,9.80
2023-11-23T20:08:35.724Z,10.23
2023-11-23T20:12:37.574Z,9.40
2023-11-23T20:16:42.296Z,10.67
2023-11-23T20:20:43.624Z,9.27
2023-11-23T20:24:45.255Z,10.17
2023-11-23T20:28:47.894Z,10.13
2023-11-23T20:32:50.015Z,12.13
2023-11-23T20:36:51.397Z,13.00
2023-11-23T20:40:52.820Z,12.47
2023-11-23T20:44:54.154Z,12.23
2023-11-23T20:48:56.852Z,13.60
2023-11-23T20:52:58.247Z,12.80
2023-11-23T20:57:00.641Z,12.53
2023-11-23T21:01:02.586Z,13.97
2023-11-23T21:05:05.764Z,12.93
2023-11-23T21:09:09.570Z,13.83
2023-11-23T21:13:11.207Z,13.73
2023-11-23T21:17:25.032Z,15.77
2023-11-23T21:21:26.846Z,16.07
2023-11-23T21:25:28.245Z,17.73
2023-11-23T21:29:29.558Z,16.20
2023-11-23T21:33:30.917Z,15.30
2023-11-23T21:37:32.336Z,15.30
2023-11-23T21:41:33.768Z,16.80
2023-11-23T21:45:36.408Z,15.47
2023-11-23T21:49:41.075Z,15.07
2023-11-23T21:53:42.478Z,14.57
2023-11-23T21:57:43.935Z,15.97
2023-11-23T22:01:45.367Z,14.50
2023-11-23T22:05:46.827Z,14.83
2023-11-23T22:09:48.213Z,14.50
2023-11-23T22:13:49.622Z,13.37
2023-11-23T22:17:54.173Z,13.93
2023-11-23T22:21:55.763Z,12.43
2023-11-23T22:25:57.376Z,12.60
2023-11-23T22:29:58.917Z,12.07
2023-11-23T22:34:00.621Z,12.67
2023-11-23T22:38:06.947Z,10.87
2023-11-23T22:42:09.919Z,11.77
2023-11-23T22:46:12.528Z,11.20
2023-11-23T22:50:14.169Z,10.30
2023-11-23T22:54:15.684Z,10.00
2023-11-23T22:58:17.001Z,10.53
2023-11-23T23:02:19.005Z,10.33
2023-11-23T23:06:21.818Z,9.93
2023-11-23T23:10:25.158Z,9.13
2023-11-23T23:14:28.933Z,8.93
2023-11-23T23:18:30.410Z,8.23
2023-11-23T23:22:34.749Z,8.30
2023-11-23T23:26:36.094Z,8.33
2023-11-23T23:30:37.535Z,10.00
2023-11-23T23:34:39.248Z,7.07
2023-11-23T23:38:40.714Z,4.97
2023-11-23T23:42:43.429Z,4.40
2023-11-23T23:46:44.919Z,3.77
2023-11-23T23:50:46.395Z,3.97
2023-11-23T23:54:49.858Z,3.03
2023-11-23T23:58:53.430Z,3.57
